Time,TemperatureF,DewpointF,PressureIn,WindDirection,WindDirectionDegrees,WindSpeedMPH,WindSpeedGustMPH,Humidity,HourlyPrecipIn,Conditions,Clouds,dailyrainin,SoftwareType,DateUTC
2013-01-11 00:00:00,33.3,29.2,29.85,NNE,20,0.0,0.0,85,0.00,,---,0.00,VWS V14.01,2013-01-11 08:00:00,
2013-01-11 00:06:00,33.3,29.2,29.85,NNE,20,0.0,0.0,85,0.00,,---,0.00,VWS V14.01,2013-01-11 08:06:00,
2013-01-11 00:12:00,33.3,29.2,29.85,NNE,20,0.0,0.0,85,0.00,,---,0.00,VWS V14.01,2013-01-11 08:12:00,
2013-01-11 00:18:00,33.3,29.2,29.85,NNE,20,0.0,0.0,85,0.00,,---,0.00,VWS V14.01,2013-01-11 08:18:00,
2013-01-11 00:24:00,33.3,29.2,29.85,NNE,20,0.0,0.0,85,0.00,,---,0.00,VWS V14.01,2013-01-11 08:24:00,
2013-01-11 00:30:00,33.1,28.8,29.85,NNE,21,0.0,0.0,84,0.00,,---,0.00,VWS V14.01,2013-01-11 08:30:00,
2013-01-11 00:36:00,32.9,28.6,29.85,NNE,21,0.0,0.0,84,0.00,,---,0.00,VWS V14.01,2013-01-11 08:36:00,
2013-01-11 00:42:00,32.7,28.4,29.85,NNE,21,0.0,0.0,84,0.00,,---,0.00,VWS V14.01,2013-01-11 08:42:00,
2013-01-11 00:48:00,32.7,28.4,29.85,NNE,21,0.0,0.0,84,0.00,,---,0.00,VWS V14.01,2013-01-11 08:48:00,
2013-01-11 00:54:00,32.5,28.2,29.85,NNE,21,0.0,0.0,84,0.00,,---,0.00,VWS V14.01,2013-01-11 08:54:00,
2013-01-11 01:00:00,32.5,28.2,29.85,NNE,21,0.0,0.0,84,0.00,,---,0.00,VWS V14.01,2013-01-11 09:00:00,
2013-01-11 01:06:00,32.4,27.8,29.85,NNE,21,0.0,0.0,83,0.00,,---,0.00,VWS V14.01,2013-01-11 09:06:00,
2013-01-11 01:12:00,32.2,27.6,29.85,NNE,21,0.0,0.0,83,0.00,,---,0.00,VWS V14.01,2013-01-11 09:12:00,
2013-01-11 01:18:00,32.2,27.3,29.85,NNE,21,0.0,0.0,82,0.00,,---,0.00,VWS V14.01,2013-01-11 09:18:00,
2013-01-11 01:24:00,32.0,27.1,29.88,NNE,21,0.0,0.0,82,0.00,,---,0.00,VWS V14.01,2013-01-11 09:24:00,
2013-01-11 01:30:00,32.0,27.1,29.88,NNE,21,0.0,0.0,82,0.00,,---,0.00,VWS V14.01,2013-01-11 09:30:00,
2013-01-11 01:36:00,32.0,27.1,29.88,NNE,21,0.0,0.0,82,0.00,,---,0.00,VWS V14.01,2013-01-11 09:36:00,
2013-01-11 01:42:00,31.8,26.7,29.88,NNE,21,0.0,0.0,81,0.00,,---,0.00,VWS V14.01,2013-01-11 09:42:00,
2013-01-11 01:48:00,31.8,26.7,29.88,NNE,21,0.0,0.0,81,0.00,,---,0.00,VWS V14.01,2013-01-11 09:48:00,
2013-01-11 01:54:00,31.6,26.2,29.88,NNE,21,0.0,0.0,80,0.00,,---,0.00,VWS V14.01,2013-01-11 09:54:00,
2013-01-11 02:00:00,31.8,26.7,29.88,NNE,20,0.0,0.0,81,0.00,,---,0.00,VWS V14.01,2013-01-11 10:00:00,
2013-01-11 02:06:00,31.8,26.7,29.88,NNE,21,0.0,0.0,81,0.00,,---,0.00,VWS V14.01,2013-01-11 10:06:00,
2013-01-11 02:12:00,31.8,26.7,29.88,NNE,21,0.0,0.0,81,0.00,,---,0.00,VWS V14.01,2013-01-11 10:12:00,
2013-01-11 02:18:00,32.0,27.1,29.88,NNE,21,0.0,0.0,82,0.00,,---,0.00,VWS V14.01,2013-01-11 10:18:00,
2013-01-11 02:24:00,32.0,27.1,29.88,NNE,21,0.0,0.0,82,0.00,,---,0.00,VWS V14.01,2013-01-11 10:24:00,
2013-01-11 02:30:00,32.0,27.1,29.88,NNE,21,0.0,0.0,82,0.00,,---,0.00,VWS V14.01,2013-01-11 10:30:00,
2013-01-11 02:36:00,32.2,27.3,29.88,NNE,21,0.0,0.0,82,0.00,,---,0.00,VWS V14.01,2013-01-11 10:36:00,
2013-01-11 02:42:00,32.2,27.3,29.88,NNE,21,0.0,0.0,82,0.00,,---,0.00,VWS V14.01,2013-01-11 10:42:00,
2013-01-11 02:48:00,32.2,27.3,29.88,NNE,21,0.0,0.0,82,0.00,,---,0.00,VWS V14.01,2013-01-11 10:48:00,
2013-01-11 02:54:00,32.2,27.3,29.88,NNE,21,0.0,0.0,82,0.00,,---,0.00,VWS V14.01,2013-01-11 10:54:00,
2013-01-11 03:00:00,32.5,27.7,29.88,NNE,21,0.0,0.0,82,0.00,,---,0.00,VWS V14.01,2013-01-11 11:00:00,
2013-01-11 03:06:00,32.5,27.7,29.88,NNE,21,0.0,0.0,82,0.00,,---,0.00,VWS V14.01,2013-01-11 11:06:00,
2013-01-11 03:12:00,32.4,27.5,29.88,NNE,21,0.0,0.0,82,0.00,,---,0.00,VWS V14.01,2013-01-11 11:12:00,
2013-01-11 03:18:00,32.5,27.7,29.88,NNE,21,0.0,0.0,82,0.00,,---,0.00,VWS V14.01,2013-01-11 11:18:00,
2013-01-11 03:24:00,32.2,27.0,29.88,NNE,21,0.0,0.0,81,0.00,,---,0.00,VWS V14.01,2013-01-11 11:24:00,
2013-01-11 03:30:00,32.4,27.2,29.88,NNE,21,0.0,0.0,81,0.00,,---,0.00,VWS V14.01,2013-01-11 11:30:00,
2013-01-11 03:36:00,32.2,26.7,29.88,NNE,21,0.0,0.0,80,0.00,,---,0.00,VWS V14.01,2013-01-11 11:36:00,
2013-01-11 03:42:00,32.0,25.6,29.88,NNE,21,0.0,0.0,77,0.00,,---,0.00,VWS V14.01,2013-01-11 11:42:00,
2013-01-11 03:48:00,32.2,25.5,29.88,NNE,21,0.0,0.0,76,0.00,,---,0.00,VWS V14.01,2013-01-11 11:48:00,
2013-01-11 03:54:00,32.2,25.5,29.88,NNE,21,0.0,0.0,76,0.00,,---,0.00,VWS V14.01,2013-01-11 11:54:00,
2013-01-11 04:00:00,32.2,25.5,29.88,NNE,21,0.0,0.0,76,0.00,,---,0.00,VWS V14.01,2013-01-11 12:00:00,
2013-01-11 04:06:00,32.2,25.5,29.91,NNE,21,0.0,0.0,76,0.00,,---,0.00,VWS V14.01,2013-01-11 12:06:00,
2013-01-11 04:12:00,32.0,25.0,29.91,NNE,21,0.0,0.0,75,0.00,,---,0.00,VWS V14.01,2013-01-11 12:12:00,
2013-01-11 04:18:00,32.0,25.0,29.91,NNE,21,0.0,0.0,75,0.00,,---,0.00,VWS V14.01,2013-01-11 12:18:00,
2013-01-11 04:24:00,32.0,25.0,29.91,NNE,21,0.0,0.0,75,0.00,,---,0.00,VWS V14.01,2013-01-11 12:24:00,
2013-01-11 04:30:00,31.8,24.8,29.91,NNE,21,0.0,0.0,75,0.00,,---,0.00,VWS V14.01,2013-01-11 12:30:00,
2013-01-11 04:36:00,31.6,24.6,29.91,NNE,21,0.0,0.0,75,0.00,,---,0.00,VWS V14.01,2013-01-11 12:36:00,
2013-01-11 04:42:00,31.5,24.1,29.91,NNE,21,0.0,0.0,74,0.00,,---,0.00,VWS V14.01,2013-01-11 12:42:00,
2013-01-11 04:48:00,31.5,24.1,29.91,NNE,21,0.0,0.0,74,0.00,,---,0.00,VWS V14.01,2013-01-11 12:48:00,
2013-01-11 04:54:00,31.5,24.1,29.91,NNE,21,0.0,0.0,74,0.00,,---,0.00,VWS V14.01,2013-01-11 12:54:00,
2013-01-11 05:00:00,31.5,24.1,29.91,NNE,21,0.0,0.0,74,0.00,,---,0.00,VWS V14.01,2013-01-11 13:00:00,
2013-01-11 05:06:00,31.6,24.3,29.91,NNE,21,0.0,0.0,74,0.00,,---,0.00,VWS V14.01,2013-01-11 13:06:00,
2013-01-11 05:12:00,31.5,24.1,29.91,NNE,21,0.0,0.0,74,0.00,,---,0.00,VWS V14.01,2013-01-11 13:12:00,
2013-01-11 05:18:00,31.5,24.1,29.91,NNE,21,0.0,0.0,74,0.00,,---,0.00,VWS V14.01,2013-01-11 13:18:00,
2013-01-11 05:24:00,31.5,24.1,29.91,NNE,21,0.0,0.0,74,0.00,,---,0.00,VWS V14.01,2013-01-11 13:24:00,
2013-01-11 05:30:00,31.1,23.8,29.91,NNE,21,0.0,0.0,74,0.00,,---,0.00,VWS V14.01,2013-01-11 13:30:00,
2013-01-11 05:36:00,31.1,23.5,29.91,NNE,21,0.0,0.0,73,0.00,,---,0.00,VWS V14.01,2013-01-11 13:36:00,
2013-01-11 05:42:00,31.1,23.5,29.91,NNE,21,0.0,0.0,73,0.00,,---,0.00,VWS V14.01,2013-01-11 13:42:00,
2013-01-11 05:48:00,30.9,23.0,29.91,NNE,21,0.0,0.0,72,0.00,,---,0.00,VWS V14.01,2013-01-11 13:48:00,
2013-01-11 05:54:00,31.1,23.5,29.94,NNE,21,0.0,0.0,73,0.00,,---,0.00,VWS V14.01,2013-01-11 13:54:00,
2013-01-11 06:00:00,31.1,23.5,29.94,NNE,21,0.0,0.0,73,0.00,,---,0.00,VWS V14.01,2013-01-11 14:00:00,
2013-01-11 06:06:00,31.1,23.5,29.94,NNE,21,0.0,0.0,73,0.00,,---,0.00,VWS V14.01,2013-01-11 14:06:00,
2013-01-11 06:12:00,31.1,23.5,29.94,NNE,21,0.0,0.0,73,0.00,,---,0.00,VWS V14.01,2013-01-11 14:12:00,
2013-01-11 06:18:00,31.1,23.1,29.94,NNE,21,0.0,0.0,72,0.00,,---,0.00,VWS V14.01,2013-01-11 14:18:00,
2013-01-11 06:24:00,30.9,23.0,29.94,NNE,21,0.0,0.0,72,0.00,,---,0.00,VWS V14.01,2013-01-11 14:24:00,
2013-01-11 06:30:00,31.1,23.1,29.94,NNE,21,0.0,0.0,72,0.00,,---,0.00,VWS V14.01,2013-01-11 14:30:00,
2013-01-11 06:36:00,31.1,23.1,29.94,NNE,21,0.0,0.0,72,0.00,,---,0.00,VWS V14.01,2013-01-11 14:36:00,
2013-01-11 06:42:00,31.3,23.6,29.94,NNE,21,0.0,0.0,73,0.00,,---,0.00,VWS V14.01,2013-01-11 14:42:00,
2013-01-11 06:48:00,31.1,23.1,29.94,NNE,21,0.0,0.0,72,0.00,,---,0.00,VWS V14.01,2013-01-11 14:48:00,
2013-01-11 06:54:00,30.9,23.0,29.94,NNE,21,0.0,0.0,72,0.00,,---,0.00,VWS V14.01,2013-01-11 14:54:00,
2013-01-11 07:00:00,30.7,22.5,29.94,NNE,21,0.0,0.0,71,0.00,,---,0.00,VWS V14.01,2013-01-11 15:00:00,
2013-01-11 07:06:00,30.9,23.0,29.94,NNE,21,0.0,0.0,72,0.00,,---,0.00,VWS V14.01,2013-01-11 15:06:00,
2013-01-11 07:12:00,30.7,22.8,29.94,NNE,21,0.0,0.0,72,0.00,,---,0.00,VWS V14.01,2013-01-11 15:12:00,
2013-01-11 07:18:00,30.7,22.8,29.94,NNE,21,0.0,0.0,72,0.00,,---,0.00,VWS V14.01,2013-01-11 15:18:00,
2013-01-11 07:25:00,30.6,22.3,29.97,NNE,20,0.0,0.0,71,0.00,,---,0.00,VWS V14.01,2013-01-11 15:25:00,
2013-01-11 07:30:00,30.4,22.1,29.97,NNE,20,0.0,0.0,71,0.00,,---,0.00,VWS V14.01,2013-01-11 15:30:00,
2013-01-11 07:36:00,30.2,21.9,29.97,NNE,20,0.0,0.0,71,0.00,,---,0.00,VWS V14.01,2013-01-11 15:36:00,
2013-01-11 07:42:00,30.2,21.9,29.97,NNE,20,0.0,0.0,71,0.00,,---,0.00,VWS V14.01,2013-01-11 15:42:00,
2013-01-11 07:48:00,30.0,21.8,29.97,NNE,20,0.0,0.0,71,0.00,,---,0.00,VWS V14.01,2013-01-11 15:48:00,
2013-01-11 07:54:00,29.8,21.6,29.97,NNE,20,0.0,0.0,71,0.00,,---,0.00,VWS V14.01,2013-01-11 15:54:00,
2013-01-11 08:00:00,29.7,21.4,29.97,NNE,20,0.0,0.0,71,0.00,,---,0.00,VWS V14.01,2013-01-11 16:00:00,
2013-01-11 08:06:00,29.7,21.4,29.97,NNE,20,0.0,0.0,71,0.00,,---,0.00,VWS V14.01,2013-01-11 16:06:00,
2013-01-11 08:12:00,29.7,21.4,29.97,NNE,20,0.0,0.0,71,0.00,,---,0.00,VWS V14.01,2013-01-11 16:12:00,
2013-01-11 08:18:00,29.5,21.2,29.97,NNE,20,0.0,0.0,71,0.00,,---,0.00,VWS V14.01,2013-01-11 16:18:00,
2013-01-11 08:24:00,29.3,20.7,29.97,NNE,20,0.0,0.0,70,0.00,,---,0.00,VWS V14.01,2013-01-11 16:24:00,
2013-01-11 08:30:00,29.3,20.7,29.97,NNE,20,0.0,0.0,70,0.00,,---,0.00,VWS V14.01,2013-01-11 16:30:00,
2013-01-11 08:36:00,29.3,20.7,29.97,NNE,20,0.0,0.0,70,0.00,,---,0.00,VWS V14.01,2013-01-11 16:36:00,
2013-01-11 08:42:00,29.3,20.7,29.97,NNE,20,0.0,0.0,70,0.00,,---,0.00,VWS V14.01,2013-01-11 16:42:00,
2013-01-11 08:48:00,29.3,20.7,29.97,NNE,20,0.0,0.0,70,0.00,,---,0.00,VWS V14.01,2013-01-11 16:48:00,
2013-01-11 08:54:00,29.3,20.4,30.00,NNE,20,0.0,0.0,69,0.00,,---,0.00,VWS V14.01,2013-01-11 16:54:00,
2013-01-11 09:00:00,29.3,20.4,30.00,NNE,20,0.0,0.0,69,0.00,,---,0.00,VWS V14.01,2013-01-11 17:00:00,
2013-01-11 09:06:00,29.3,20.4,30.00,NNE,20,0.0,0.0,69,0.00,,---,0.00,VWS V14.01,2013-01-11 17:06:00,
2013-01-11 09:12:00,29.3,20.4,30.00,NNE,20,0.0,0.0,69,0.00,,---,0.00,VWS V14.01,2013-01-11 17:12:00,
2013-01-11 09:18:00,29.3,20.4,30.00,NNE,20,0.0,0.0,69,0.00,,---,0.00,VWS V14.01,2013-01-11 17:18:00,
2013-01-11 09:24:00,29.3,20.4,30.00,NNE,20,0.0,0.0,69,0.00,,---,0.00,VWS V14.01,2013-01-11 17:24:00,
2013-01-11 09:30:00,29.3,20.4,30.00,NNE,20,0.0,0.0,69,0.00,,---,0.00,VWS V14.01,2013-01-11 17:30:00,
2013-01-11 09:36:00,29.3,20.4,30.00,NNE,20,0.0,0.0,69,0.00,,---,0.00,VWS V14.01,2013-01-11 17:36:00,
2013-01-11 09:42:00,29.5,20.6,30.00,NNE,20,0.0,0.0,69,0.00,,---,0.00,VWS V14.01,2013-01-11 17:42:00,
2013-01-11 09:48:00,29.7,21.1,30.00,NNE,20,0.0,0.0,70,0.00,,---,0.00,VWS V14.01,2013-01-11 17:48:00,
2013-01-11 09:54:00,29.8,21.3,30.03,NNE,20,0.0,0.0,70,0.00,,---,0.00,VWS V14.01,2013-01-11 17:54:00,
2013-01-11 10:00:00,29.8,21.6,30.03,NNE,21,0.0,0.0,71,0.00,,---,0.00,VWS V14.01,2013-01-11 18:00:00,
2013-01-11 10:06:00,29.8,21.3,30.03,NNE,20,0.0,0.0,70,0.00,,---,0.00,VWS V14.01,2013-01-11 18:06:00,
2013-01-11 10:12:00,30.0,21.4,30.03,NNE,20,0.0,0.0,70,0.00,,---,0.00,VWS V14.01,2013-01-11 18:12:00,
2013-01-11 10:18:00,30.0,21.4,30.03,NNE,21,0.0,0.0,70,0.00,,---,0.00,VWS V14.01,2013-01-11 18:18:00,
2013-01-11 10:24:00,30.2,21.6,30.03,NNE,21,0.0,0.0,70,0.00,,---,0.00,VWS V14.01,2013-01-11 18:24:00,
2013-01-11 10:30:00,30.2,21.6,30.03,NNE,20,0.0,0.0,70,0.00,,---,0.00,VWS V14.01,2013-01-11 18:30:00,
2013-01-11 10:36:00,30.2,21.6,30.03,NNE,21,0.0,0.0,70,0.00,,---,0.00,VWS V14.01,2013-01-11 18:36:00,
2013-01-11 10:42:00,30.2,21.6,30.03,NNE,21,0.0,0.0,70,0.00,,---,0.00,VWS V14.01,2013-01-11 18:42:00,
2013-01-11 10:48:00,30.2,21.6,30.03,NNE,21,0.0,0.0,70,0.00,,---,0.00,VWS V14.01,2013-01-11 18:48:00,
2013-01-11 10:54:00,30.6,22.0,30.03,NNE,20,0.0,0.0,70,0.00,,---,0.00,VWS V14.01,2013-01-11 18:54:00,
2013-01-11 11:00:00,30.6,22.0,30.03,NNE,21,0.0,0.0,70,0.00,,---,0.00,VWS V14.01,2013-01-11 19:00:00,
2013-01-11 11:06:00,30.7,22.1,30.03,NNE,21,0.0,0.0,70,0.00,,---,0.00,VWS V14.01,2013-01-11 19:06:00,
2013-01-11 11:12:00,30.9,22.6,30.03,NNE,21,0.0,0.0,71,0.00,,---,0.00,VWS V14.01,2013-01-11 19:12:00,
2013-01-11 11:18:00,31.1,22.8,30.03,NNE,20,0.0,0.0,71,0.00,,---,0.00,VWS V14.01,2013-01-11 19:18:00,
2013-01-11 11:24:00,31.3,23.3,30.03,NNE,20,0.0,0.0,72,0.00,,---,0.00,VWS V14.01,2013-01-11 19:24:00,
2013-01-11 11:30:00,31.5,23.5,30.03,NNE,20,0.0,0.0,72,0.00,,---,0.00,VWS V14.01,2013-01-11 19:30:00,
2013-01-11 11:36:00,31.6,23.7,30.03,NNE,20,0.0,0.0,72,0.00,,---,0.00,VWS V14.01,2013-01-11 19:36:00,
2013-01-11 11:42:00,31.8,23.8,30.03,NNE,20,0.0,0.0,72,0.00,,---,0.00,VWS V14.01,2013-01-11 19:42:00,
2013-01-11 11:48:00,32.0,24.3,30.03,NNE,20,0.0,0.0,73,0.00,,---,0.00,VWS V14.01,2013-01-11 19:48:00,
2013-01-11 11:54:00,32.2,24.5,30.03,NNE,20,0.0,0.0,73,0.00,,---,0.00,VWS V14.01,2013-01-11 19:54:00,
2013-01-11 12:00:00,32.5,24.9,30.03,NNE,20,0.0,0.0,73,0.00,,---,0.00,VWS V14.01,2013-01-11 20:00:00,
2013-01-11 12:06:00,32.9,25.2,30.03,NNE,21,0.0,0.0,73,0.00,,---,0.00,VWS V14.01,2013-01-11 20:06:00,
2013-01-11 12:12:00,33.3,25.9,30.03,NNE,20,0.0,0.0,74,0.00,,---,0.00,VWS V14.01,2013-01-11 20:12:00,
2013-01-11 12:18:00,33.4,25.7,30.03,NNE,21,0.0,0.0,73,0.00,,---,0.00,VWS V14.01,2013-01-11 20:18:00,
2013-01-11 12:24:00,33.4,23.7,30.03,NNE,21,0.0,0.0,67,0.00,,---,0.00,VWS V14.01,2013-01-11 20:24:00,
2013-01-11 12:30:00,33.3,23.5,30.03,NNE,21,0.0,0.0,67,0.00,,---,0.00,VWS V14.01,2013-01-11 20:30:00,
2013-01-11 12:36:00,33.1,23.0,30.03,NNE,21,0.0,0.0,66,0.00,,---,0.00,VWS V14.01,2013-01-11 20:36:00,
2013-01-11 12:42:00,32.9,22.8,30.03,NNE,21,0.0,0.0,66,0.00,,---,0.00,VWS V14.01,2013-01-11 20:42:00,
2013-01-11 12:48:00,32.9,23.5,30.03,NNE,21,0.0,0.0,68,0.00,,---,0.00,VWS V14.01,2013-01-11 20:48:00,
2013-01-11 12:54:00,32.9,23.9,30.03,NNE,21,0.0,0.0,69,0.00,,---,0.00,VWS V14.01,2013-01-11 20:54:00,
2013-01-11 13:00:00,32.9,24.2,30.03,NNE,21,0.0,0.0,70,0.00,,---,0.00,VWS V14.01,2013-01-11 21:00:00,
2013-01-11 13:06:00,33.1,24.4,30.03,NNE,21,0.0,0.0,70,0.00,,---,0.00,VWS V14.01,2013-01-11 21:06:00,
2013-01-11 13:12:00,33.1,24.4,30.03,NNE,21,0.0,0.0,70,0.00,,---,0.00,VWS V14.01,2013-01-11 21:12:00,
2013-01-11 13:18:00,32.7,23.7,30.03,NNE,21,0.0,0.0,69,0.00,,---,0.00,VWS V14.01,2013-01-11 21:18:00,
2013-01-11 13:24:00,32.5,23.5,30.03,NNE,21,0.0,0.0,69,0.00,,---,0.00,VWS V14.01,2013-01-11 21:24:00,
2013-01-11 13:30:00,32.7,24.0,30.03,NNE,21,0.0,0.0,70,0.00,,---,0.00,VWS V14.01,2013-01-11 21:30:00,
2013-01-11 13:36:00,32.7,23.7,30.03,NNE,21,0.0,0.0,69,0.00,,---,0.00,VWS V14.01,2013-01-11 21:36:00,
2013-01-11 13:42:00,32.7,23.7,30.03,NNE,21,0.0,0.0,69,0.00,,---,0.00,VWS V14.01,2013-01-11 21:42:00,
2013-01-11 13:48:00,32.7,23.7,30.03,NNE,21,0.0,0.0,69,0.00,,---,0.00,VWS V14.01,2013-01-11 21:48:00,
2013-01-11 13:54:00,32.7,24.0,30.06,NNE,21,0.0,0.0,70,0.00,,---,0.00,VWS V14.01,2013-01-11 21:54:00,
2013-01-11 14:00:00,32.9,24.2,30.06,NNE,21,0.0,0.0,70,0.00,,---,0.00,VWS V14.01,2013-01-11 22:00:00,
2013-01-11 14:06:00,33.1,24.4,30.03,NNE,21,0.0,0.0,70,0.00,,---,0.00,VWS V14.01,2013-01-11 22:06:00,
2013-01-11 14:12:00,33.3,24.9,30.03,NNE,21,0.0,0.0,71,0.00,,---,0.00,VWS V14.01,2013-01-11 22:12:00,
2013-01-11 14:18:00,33.4,25.1,30.03,NNE,21,0.0,0.0,71,0.00,,---,0.00,VWS V14.01,2013-01-11 22:18:00,
2013-01-11 14:24:00,33.4,25.1,30.03,NNE,21,0.0,0.0,71,0.00,,---,0.00,VWS V14.01,2013-01-11 22:24:00,
2013-01-11 14:30:00,33.4,25.1,30.03,NNE,20,0.0,0.0,71,0.00,,---,0.00,VWS V14.01,2013-01-11 22:30:00,
2013-01-11 14:36:00,33.4,25.1,30.03,NNE,20,0.0,0.0,71,0.00,,---,0.00,VWS V14.01,2013-01-11 22:36:00,
2013-01-11 14:42:00,33.4,25.1,30.03,NNE,21,0.0,0.0,71,0.00,,---,0.00,VWS V14.01,2013-01-11 22:42:00,
2013-01-11 14:48:00,33.3,24.9,30.03,NNE,20,0.0,0.0,71,0.00,,---,0.00,VWS V14.01,2013-01-11 22:48:00,
2013-01-11 14:54:00,33.1,24.7,30.03,NNE,20,0.0,0.0,71,0.00,,---,0.00,VWS V14.01,2013-01-11 22:54:00,
2013-01-11 15:00:00,33.1,24.7,30.03,NNE,20,0.0,0.0,71,0.00,,---,0.00,VWS V14.01,2013-01-11 23:00:00,
2013-01-11 15:06:00,32.7,24.4,30.03,NNE,20,0.0,0.0,71,0.00,,---,0.00,VWS V14.01,2013-01-11 23:06:00,
2013-01-11 15:12:00,32.7,24.4,30.03,NNE,20,0.0,0.0,71,0.00,,---,0.00,VWS V14.01,2013-01-11 23:12:00,
2013-01-11 15:18:00,32.7,24.4,30.03,NNE,20,0.0,0.0,71,0.00,,---,0.00,VWS V14.01,2013-01-11 23:18:00,
2013-01-11 15:24:00,32.7,24.4,30.03,NNE,20,0.0,0.0,71,0.00,,---,0.00,VWS V14.01,2013-01-11 23:24:00,
2013-01-11 15:30:00,32.5,24.2,30.03,NNE,20,0.0,0.0,71,0.00,,---,0.00,VWS V14.01,2013-01-11 23:30:00,
2013-01-11 15:36:00,32.5,24.2,30.06,NNE,20,0.0,0.0,71,0.00,,---,0.00,VWS V14.01,2013-01-11 23:36:00,
2013-01-11 15:42:00,32.5,24.5,30.06,NNE,20,0.0,0.0,72,0.00,,---,0.00,VWS V14.01,2013-01-11 23:42:00,
2013-01-11 15:48:00,32.4,24.0,30.06,NNE,20,0.0,0.0,71,0.00,,---,0.00,VWS V14.01,2013-01-11 23:48:00,
2013-01-11 15:54:00,32.2,23.9,30.06,NNE,20,0.0,0.0,71,0.00,,---,0.00,VWS V14.01,2013-01-11 23:54:00,
2013-01-11 16:00:00,32.2,23.9,30.06,NNE,21,0.0,0.0,71,0.00,,---,0.00,VWS V14.01,2013-01-12 00:00:00,
2013-01-11 16:06:00,31.8,23.5,30.06,NNE,21,0.0,0.0,71,0.00,,---,0.00,VWS V14.01,2013-01-12 00:06:00,
2013-01-11 16:12:00,31.8,23.5,30.06,NNE,21,0.0,0.0,71,0.00,,---,0.00,VWS V14.01,2013-01-12 00:12:00,
2013-01-11 16:18:00,31.6,23.3,30.06,NNE,21,0.0,0.0,71,0.00,,---,0.00,VWS V14.01,2013-01-12 00:18:00,
2013-01-11 16:24:00,31.5,23.5,30.06,NNE,21,0.0,0.0,72,0.00,,---,0.00,VWS V14.01,2013-01-12 00:24:00,
2013-01-11 16:30:00,31.3,23.0,30.06,NNE,21,0.0,0.0,71,0.00,,---,0.00,VWS V14.01,2013-01-12 00:30:00,
2013-01-11 16:36:00,31.1,23.1,30.06,NNE,21,0.0,0.0,72,0.00,,---,0.00,VWS V14.01,2013-01-12 00:36:00,
2013-01-11 16:42:00,31.1,23.1,30.06,NNE,21,0.0,0.0,72,0.00,,---,0.00,VWS V14.01,2013-01-12 00:42:00,
2013-01-11 16:48:00,30.9,23.0,30.06,NNE,21,0.0,0.0,72,0.00,,---,0.00,VWS V14.01,2013-01-12 00:48:00,
2013-01-11 16:54:00,30.7,22.8,30.06,NNE,21,0.0,0.0,72,0.00,,---,0.00,VWS V14.01,2013-01-12 00:54:00,
2013-01-11 17:00:00,30.6,22.6,30.06,NNE,21,0.0,0.0,72,0.00,,---,0.00,VWS V14.01,2013-01-12 01:00:00,
2013-01-11 17:06:00,30.4,22.5,30.06,NNE,21,0.0,0.0,72,0.00,,---,0.00,VWS V14.01,2013-01-12 01:06:00,
2013-01-11 17:12:00,30.2,22.3,30.06,NNE,21,0.0,0.0,72,0.00,,---,0.00,VWS V14.01,2013-01-12 01:12:00,
2013-01-11 17:18:00,30.2,22.3,30.06,NNE,21,0.0,0.0,72,0.00,,---,0.00,VWS V14.01,2013-01-12 01:18:00,
2013-01-11 17:24:00,29.8,21.9,30.06,NNE,21,0.0,0.0,72,0.00,,---,0.00,VWS V14.01,2013-01-12 01:24:00,
2013-01-11 17:30:00,29.8,21.9,30.06,NNE,21,0.0,0.0,72,0.00,,---,0.00,VWS V14.01,2013-01-12 01:30:00,
2013-01-11 17:36:00,29.8,21.9,30.06,NNE,21,0.0,0.0,72,0.00,,---,0.00,VWS V14.01,2013-01-12 01:36:00,
2013-01-11 17:42:00,29.7,21.8,30.06,NNE,21,0.0,0.0,72,0.00,,---,0.00,VWS V14.01,2013-01-12 01:42:00,
2013-01-11 17:48:00,29.7,22.1,30.06,NNE,21,0.0,0.0,73,0.00,,---,0.00,VWS V14.01,2013-01-12 01:48:00,
2013-01-11 17:54:00,29.7,21.8,30.06,NNE,21,0.0,0.0,72,0.00,,---,0.00,VWS V14.01,2013-01-12 01:54:00,
2013-01-11 18:00:00,29.5,21.6,30.06,NNE,21,0.0,0.0,72,0.00,,---,0.00,VWS V14.01,2013-01-12 02:00:00,
2013-01-11 18:06:00,29.5,21.6,30.06,NNE,21,0.0,0.0,72,0.00,,---,0.00,VWS V14.01,2013-01-12 02:06:00,
2013-01-11 18:12:00,29.5,21.9,30.06,NNE,21,0.0,0.0,73,0.00,,---,0.00,VWS V14.01,2013-01-12 02:12:00,
2013-01-11 18:18:00,29.3,21.4,30.06,NNE,21,0.0,0.0,72,0.00,,---,0.00,VWS V14.01,2013-01-12 02:18:00,
2013-01-11 18:24:00,29.3,21.4,30.06,NNE,21,0.0,0.0,72,0.00,,---,0.00,VWS V14.01,2013-01-12 02:24:00,
2013-01-11 18:30:00,29.1,21.2,30.06,NNE,21,0.0,0.0,72,0.00,,---,0.00,VWS V14.01,2013-01-12 02:30:00,
2013-01-11 18:36:00,29.1,21.2,30.06,NNE,21,0.0,0.0,72,0.00,,---,0.00,VWS V14.01,2013-01-12 02:36:00,
2013-01-11 18:42:00,28.9,21.1,30.06,NNE,21,0.0,0.0,72,0.00,,---,0.00,VWS V14.01,2013-01-12 02:42:00,
2013-01-11 18:48:00,28.9,21.1,30.06,NNE,21,0.0,0.0,72,0.00,,---,0.00,VWS V14.01,2013-01-12 02:48:00,
2013-01-11 18:54:00,28.9,21.1,30.06,NNE,21,0.0,0.0,72,0.00,,---,0.00,VWS V14.01,2013-01-12 02:54:00,
2013-01-11 19:00:00,28.8,20.9,30.06,NNE,21,0.0,0.0,72,0.00,,---,0.00,VWS V14.01,2013-01-12 03:00:00,
2013-01-11 19:06:00,28.8,20.9,30.06,NNE,21,0.0,0.0,72,0.00,,---,0.00,VWS V14.01,2013-01-12 03:06:00,
2013-01-11 19:12:00,28.6,20.7,30.06,NNE,21,0.0,0.0,72,0.00,,---,0.00,VWS V14.01,2013-01-12 03:12:00,
2013-01-11 19:18:00,28.6,20.7,30.06,NNE,21,0.0,0.0,72,0.00,,---,0.00,VWS V14.01,2013-01-12 03:18:00,
2013-01-11 19:24:00,28.6,20.7,30.06,NNE,21,0.0,0.0,72,0.00,,---,0.00,VWS V14.01,2013-01-12 03:24:00,
2013-01-11 19:30:00,28.6,20.7,30.06,NNE,21,0.0,0.0,72,0.00,,---,0.00,VWS V14.01,2013-01-12 03:30:00,
2013-01-11 19:36:00,28.4,20.5,30.06,NNE,21,0.0,0.0,72,0.00,,---,0.00,VWS V14.01,2013-01-12 03:36:00,
2013-01-11 19:42:00,28.2,20.4,30.06,NNE,21,0.0,0.0,72,0.00,,---,0.00,VWS V14.01,2013-01-12 03:42:00,
2013-01-11 19:48:00,28.2,20.4,30.06,NNE,21,0.0,0.0,72,0.00,,---,0.00,VWS V14.01,2013-01-12 03:48:00,
2013-01-11 19:54:00,28.0,20.2,30.06,NNE,21,0.0,0.0,72,0.00,,---,0.00,VWS V14.01,2013-01-12 03:54:00,
2013-01-11 20:00:00,28.0,19.9,30.06,NNE,21,0.0,0.0,71,0.00,,---,0.00,VWS V14.01,2013-01-12 04:00:00,
2013-01-11 20:06:00,27.9,19.7,30.06,NNE,21,0.0,0.0,71,0.00,,---,0.00,VWS V14.01,2013-01-12 04:06:00,
2013-01-11 20:12:00,27.9,19.7,30.06,NNE,21,0.0,0.0,71,0.00,,---,0.00,VWS V14.01,2013-01-12 04:12:00,
2013-01-11 20:18:00,27.9,19.7,30.06,NNE,21,0.0,0.0,71,0.00,,---,0.00,VWS V14.01,2013-01-12 04:18:00,
2013-01-11 20:24:00,27.9,19.7,30.06,NNE,21,0.0,0.0,71,0.00,,---,0.00,VWS V14.01,2013-01-12 04:24:00,
2013-01-11 20:30:00,27.7,19.5,30.06,NNE,21,0.0,0.0,71,0.00,,---,0.00,VWS V14.01,2013-01-12 04:30:00,
2013-01-11 20:36:00,27.7,19.5,30.06,NNE,21,0.0,0.0,71,0.00,,---,0.00,VWS V14.01,2013-01-12 04:36:00,
2013-01-11 20:42:00,27.5,19.0,30.06,NNE,21,0.0,0.0,70,0.00,,---,0.00,VWS V14.01,2013-01-12 04:42:00,
2013-01-11 20:48:00,27.5,19.0,30.06,NNE,21,0.0,0.0,70,0.00,,---,0.00,VWS V14.01,2013-01-12 04:48:00,
2013-01-11 20:54:00,27.3,18.8,30.06,NNE,21,0.0,0.0,70,0.00,,---,0.00,VWS V14.01,2013-01-12 04:54:00,
2013-01-11 21:00:00,27.3,18.8,30.06,NNE,21,0.0,0.0,70,0.00,,---,0.00,VWS V14.01,2013-01-12 05:00:00,
2013-01-11 21:02:00,27.3,18.8,30.06,NNE,21,0.0,0.0,70,0.00,,---,0.00,VWS V14.01,2013-01-12 05:02:00,
2013-01-11 21:08:00,27.1,18.7,30.06,NNE,21,0.0,0.0,70,0.00,,---,0.00,VWS V14.01,2013-01-12 05:08:00,
2013-01-11 21:14:00,27.0,18.5,30.06,NNE,21,0.0,0.0,70,0.00,,---,0.00,VWS V14.01,2013-01-12 05:14:00,
2013-01-11 21:20:00,27.0,18.5,30.06,NNE,21,0.0,0.0,70,0.00,,---,0.00,VWS V14.01,2013-01-12 05:20:00,
2013-01-11 21:24:00,27.0,18.5,30.06,NNE,21,0.0,0.0,70,0.00,,---,0.00,VWS V14.01,2013-01-12 05:24:00,
2013-01-11 21:30:00,27.0,18.5,30.06,NNE,21,0.0,0.0,70,0.00,,---,0.00,VWS V14.01,2013-01-12 05:30:00,
2013-01-11 21:36:00,27.0,18.5,30.06,NNE,21,0.0,0.0,70,0.00,,---,0.00,VWS V14.01,2013-01-12 05:36:00,
2013-01-11 21:42:00,26.8,18.3,30.06,NNE,21,0.0,0.0,70,0.00,,---,0.00,VWS V14.01,2013-01-12 05:42:00,
2013-01-11 21:48:00,26.8,18.3,30.06,NNE,21,0.0,0.0,70,0.00,,---,0.00,VWS V14.01,2013-01-12 05:48:00,
2013-01-11 21:54:00,26.8,18.3,30.06,NNE,21,0.0,0.0,70,0.00,,---,0.00,VWS V14.01,2013-01-12 05:54:00,
2013-01-11 22:00:00,26.6,18.1,30.06,NNE,21,0.0,0.0,70,0.00,,---,0.00,VWS V14.01,2013-01-12 06:00:00,
2013-01-11 22:06:00,26.6,18.5,30.06,NNE,21,0.0,0.0,71,0.00,,---,0.00,VWS V14.01,2013-01-12 06:06:00,
2013-01-11 22:12:00,26.6,18.5,30.06,NNE,21,0.0,0.0,71,0.00,,---,0.00,VWS V14.01,2013-01-12 06:12:00,
2013-01-11 22:18:00,26.4,18.3,30.06,NNE,21,0.0,0.0,71,0.00,,---,0.00,VWS V14.01,2013-01-12 06:18:00,
2013-01-11 22:24:00,26.2,17.8,30.06,NNE,21,0.0,0.0,70,0.00,,---,0.00,VWS V14.01,2013-01-12 06:24:00,
2013-01-11 22:30:00,26.2,18.1,30.06,NNE,21,0.0,0.0,71,0.00,,---,0.00,VWS V14.01,2013-01-12 06:30:00,
2013-01-11 22:36:00,26.1,17.6,30.06,NNE,21,0.0,0.0,70,0.00,,---,0.00,VWS V14.01,2013-01-12 06:36:00,
2013-01-11 22:42:00,26.1,17.6,30.06,NNE,21,0.0,0.0,70,0.00,,---,0.00,VWS V14.01,2013-01-12 06:42:00,
2013-01-11 22:48:00,26.1,17.6,30.06,NNE,21,0.0,0.0,70,0.00,,---,0.00,VWS V14.01,2013-01-12 06:48:00,
2013-01-11 22:54:00,26.1,18.0,30.06,NNE,21,0.0,0.0,71,0.00,,---,0.00,VWS V14.01,2013-01-12 06:54:00,
2013-01-11 23:00:00,26.1,18.0,30.06,NNE,21,0.0,0.0,71,0.00,,---,0.00,VWS V14.01,2013-01-12 07:00:00,
2013-01-11 23:06:00,25.9,17.8,30.06,NNE,21,0.0,0.0,71,0.00,,---,0.00,VWS V14.01,2013-01-12 07:06:00,
2013-01-11 23:12:00,25.9,17.5,30.06,NNE,21,0.0,0.0,70,0.00,,---,0.00,VWS V14.01,2013-01-12 07:12:00,
2013-01-11 23:18:00,25.9,17.8,30.06,NNE,21,0.0,0.0,71,0.00,,---,0.00,VWS V14.01,2013-01-12 07:18:00,
2013-01-11 23:24:00,25.7,17.3,30.06,NNE,21,0.0,0.0,70,0.00,,---,0.00,VWS V14.01,2013-01-12 07:24:00,
2013-01-11 23:30:00,25.7,17.3,30.06,NNE,21,0.0,0.0,70,0.00,,---,0.00,VWS V14.01,2013-01-12 07:30:00,
2013-01-11 23:36:00,25.5,17.1,30.06,NNE,21,0.0,0.0,70,0.00,,---,0.00,VWS V14.01,2013-01-12 07:36:00,
2013-01-11 23:42:00,25.5,17.1,30.06,NNE,21,0.0,0.0,70,0.00,,---,0.00,VWS V14.01,2013-01-12 07:42:00,
2013-01-11 23:48:00,25.5,17.1,30.06,NNE,21,0.0,0.0,70,0.00,,---,0.00,VWS V14.01,2013-01-12 07:48:00,
2013-01-11 23:54:00,25.5,17.1,30.06,NNE,21,0.0,0.0,70,0.00,,---,0.00,VWS V14.01,2013-01-12 07:54:00,